sensor_id;sensor_type;location;lat;lon;timestamp;P1;durP1;ratioP1;P2;durP2;ratioP2
29030;SDS011;16122;50.236;11.734;2023-03-21T00:01:10;3.60;;;1.97;;
29030;SDS011;16122;50.236;11.734;2023-03-21T00:03:37;2.03;;;1.90;;
29030;SDS011;16122;50.236;11.734;2023-03-21T00:06:04;2.00;;;1.83;;
29030;SDS011;16122;50.236;11.734;2023-03-21T00:08:35;2.17;;;1.97;;
29030;SDS011;16122;50.236;11.734;2023-03-21T00:11:03;1.40;;;1.30;;
29030;SDS011;16122;50.236;11.734;2023-03-21T00:13:30;2.13;;;1.93;;
29030;SDS011;16122;50.236;11.734;2023-03-21T00:16:04;2.07;;;1.93;;
29030;SDS011;16122;50.236;11.734;2023-03-21T00:18:31;1.67;;;1.57;;
29030;SDS011;16122;50.236;11.734;2023-03-21T00:21:02;1.80;;;1.70;;
29030;SDS011;16122;50.236;11.734;2023-03-21T00:23:30;1.90;;;1.60;;
29030;SDS011;16122;50.236;11.734;2023-03-21T00:25:56;2.00;;;1.90;;
29030;SDS011;16122;50.236;11.734;2023-03-21T00:28:23;1.93;;;1.60;;
29030;SDS011;16122;50.236;11.734;2023-03-21T00:30:49;1.37;;;1.27;;
29030;SDS011;16122;50.236;11.734;2023-03-21T00:33:19;1.80;;;1.43;;
29030;SDS011;16122;50.236;11.734;2023-03-21T00:35:46;2.50;;;1.70;;
29030;SDS011;16122;50.236;11.734;2023-03-21T00:38:16;1.83;;;1.63;;
29030;SDS011;16122;50.236;11.734;2023-03-21T00:40:43;1.50;;;1.40;;
29030;SDS011;16122;50.236;11.734;2023-03-21T00:43:09;1.70;;;1.60;;
29030;SDS011;16122;50.236;11.734;2023-03-21T00:45:42;1.50;;;1.40;;
29030;SDS011;16122;50.236;11.734;2023-03-21T00:48:09;2.17;;;1.73;;
29030;SDS011;16122;50.236;11.734;2023-03-21T00:50:35;1.60;;;1.50;;
29030;SDS011;16122;50.236;11.734;2023-03-21T00:53:03;1.90;;;1.80;;
29030;SDS011;16122;50.236;11.734;2023-03-21T00:55:29;2.27;;;2.07;;
29030;SDS011;16122;50.236;11.734;2023-03-21T00:57:55;1.67;;;1.57;;
29030;SDS011;16122;50.236;11.734;2023-03-21T01:00:23;1.80;;;1.70;;
29030;SDS011;16122;50.236;11.734;2023-03-21T01:02:49;1.77;;;1.67;;
29030;SDS011;16122;50.236;11.734;2023-03-21T01:05:28;2.20;;;1.87;;
29030;SDS011;16122;50.236;11.734;2023-03-21T01:08:15;1.60;;;1.50;;
29030;SDS011;16122;50.236;11.734;2023-03-21T01:10:43;1.63;;;1.53;;
29030;SDS011;16122;50.236;11.734;2023-03-21T01:13:12;1.80;;;1.60;;
29030;SDS011;16122;50.236;11.734;2023-03-21T01:15:42;1.40;;;1.30;;
29030;SDS011;16122;50.236;11.734;2023-03-21T01:18:13;1.70;;;1.60;;
29030;SDS011;16122;50.236;11.734;2023-03-21T01:20:41;1.70;;;1.60;;
29030;SDS011;16122;50.236;11.734;2023-03-21T01:23:08;1.33;;;1.23;;
29030;SDS011;16122;50.236;11.734;2023-03-21T01:25:35;1.40;;;1.30;;
29030;SDS011;16122;50.236;11.734;2023-03-21T01:28:01;1.70;;;1.60;;
29030;SDS011;16122;50.236;11.734;2023-03-21T01:30:27;2.20;;;1.40;;
29030;SDS011;16122;50.236;11.734;2023-03-21T01:32:54;2.40;;;1.90;;
29030;SDS011;16122;50.236;11.734;2023-03-21T01:35:20;2.50;;;1.67;;
29030;SDS011;16122;50.236;11.734;2023-03-21T01:37:46;1.60;;;1.50;;
29030;SDS011;16122;50.236;11.734;2023-03-21T01:40:21;2.53;;;1.77;;
29030;SDS011;16122;50.236;11.734;2023-03-21T01:43:03;1.70;;;1.60;;
29030;SDS011;16122;50.236;11.734;2023-03-21T01:49:09;1.70;;;1.60;;
29030;SDS011;16122;50.236;11.734;2023-03-21T01:51:53;1.20;;;1.10;;
29030;SDS011;16122;50.236;11.734;2023-03-21T01:54:23;1.70;;;1.60;;
29030;SDS011;16122;50.236;11.734;2023-03-21T01:56:57;1.87;;;1.70;;
29030;SDS011;16122;50.236;11.734;2023-03-21T01:59:28;2.77;;;1.50;;
29030;SDS011;16122;50.236;11.734;2023-03-21T02:02:13;1.20;;;1.10;;
29030;SDS011;16122;50.236;11.734;2023-03-21T02:05:01;1.37;;;1.30;;
29030;SDS011;16122;50.236;11.734;2023-03-21T02:07:32;1.70;;;1.60;;
29030;SDS011;16122;50.236;11.734;2023-03-21T02:10:04;1.63;;;1.53;;
29030;SDS011;16122;50.236;11.734;2023-03-21T02:12:34;1.60;;;1.50;;
29030;SDS011;16122;50.236;11.734;2023-03-21T02:15:01;1.50;;;1.40;;
29030;SDS011;16122;50.236;11.734;2023-03-21T02:17:58;1.27;;;1.17;;
29030;SDS011;16122;50.236;11.734;2023-03-21T02:24:07;1.60;;;1.50;;
29030;SDS011;16122;50.236;11.734;2023-03-21T02:42:52;1.40;;;1.30;;
29030;SDS011;16122;50.236;11.734;2023-03-21T02:49:15;2.20;;;1.57;;
29030;SDS011;16122;50.236;11.734;2023-03-21T02:51:59;1.20;;;1.10;;
29030;SDS011;16122;50.236;11.734;2023-03-21T02:54:30;2.60;;;1.57;;
29030;SDS011;16122;50.236;11.734;2023-03-21T02:56:57;2.20;;;1.20;;
29030;SDS011;16122;50.236;11.734;2023-03-21T02:59:25;1.33;;;1.23;;
29030;SDS011;16122;50.236;11.734;2023-03-21T03:01:54;1.47;;;1.37;;
29030;SDS011;16122;50.236;11.734;2023-03-21T03:04:22;1.70;;;1.60;;
29030;SDS011;16122;50.236;11.734;2023-03-21T03:09:46;1.30;;;1.20;;
29030;SDS011;16122;50.236;11.734;2023-03-21T03:12:46;1.67;;;1.57;;
29030;SDS011;16122;50.236;11.734;2023-03-21T03:18:20;1.83;;;1.43;;
29030;SDS011;16122;50.236;11.734;2023-03-21T03:23:43;1.53;;;1.43;;
29030;SDS011;16122;50.236;11.734;2023-03-21T03:28:44;1.83;;;1.73;;
29030;SDS011;16122;50.236;11.734;2023-03-21T03:31:17;1.57;;;1.47;;
29030;SDS011;16122;50.236;11.734;2023-03-21T03:33:53;1.47;;;1.33;;
29030;SDS011;16122;50.236;11.734;2023-03-21T03:36:26;1.30;;;1.20;;
29030;SDS011;16122;50.236;11.734;2023-03-21T03:39:09;2.23;;;1.43;;
29030;SDS011;16122;50.236;11.734;2023-03-21T03:41:45;1.33;;;1.23;;
29030;SDS011;16122;50.236;11.734;2023-03-21T03:44:17;1.37;;;1.27;;
29030;SDS011;16122;50.236;11.734;2023-03-21T03:49:25;1.50;;;1.40;;
29030;SDS011;16122;50.236;11.734;2023-03-21T03:52:19;1.60;;;1.50;;
29030;SDS011;16122;50.236;11.734;2023-03-21T03:54:54;1.70;;;1.40;;
29030;SDS011;16122;50.236;11.734;2023-03-21T03:57:23;1.40;;;1.30;;
29030;SDS011;16122;50.236;11.734;2023-03-21T03:59:51;1.43;;;1.33;;
29030;SDS011;16122;50.236;11.734;2023-03-21T04:02:29;1.50;;;1.40;;
29030;SDS011;16122;50.236;11.734;2023-03-21T04:04:58;2.40;;;1.47;;
29030;SDS011;16122;50.236;11.734;2023-03-21T04:07:26;1.50;;;1.40;;
29030;SDS011;16122;50.236;11.734;2023-03-21T04:09:54;2.63;;;1.20;;
29030;SDS011;16122;50.236;11.734;2023-03-21T04:12:20;1.40;;;1.30;;
29030;SDS011;16122;50.236;11.734;2023-03-21T04:15:16;1.83;;;1.40;;
29030;SDS011;16122;50.236;11.734;2023-03-21T04:17:47;1.73;;;1.50;;
29030;SDS011;16122;50.236;11.734;2023-03-21T04:20:14;1.77;;;1.67;;
29030;SDS011;16122;50.236;11.734;2023-03-21T04:22:40;1.53;;;1.40;;
29030;SDS011;16122;50.236;11.734;2023-03-21T04:25:06;1.53;;;1.43;;
29030;SDS011;16122;50.236;11.734;2023-03-21T04:27:33;1.40;;;1.30;;
29030;SDS011;16122;50.236;11.734;2023-03-21T04:30:18;1.13;;;1.10;;
29030;SDS011;16122;50.236;11.734;2023-03-21T04:32:49;1.83;;;1.20;;
29030;SDS011;16122;50.236;11.734;2023-03-21T04:35:18;1.50;;;1.40;;
29030;SDS011;16122;50.236;11.734;2023-03-21T04:37:45;1.60;;;1.50;;
29030;SDS011;16122;50.236;11.734;2023-03-21T04:40:13;1.60;;;1.50;;
29030;SDS011;16122;50.236;11.734;2023-03-21T04:42:42;1.23;;;1.13;;
29030;SDS011;16122;50.236;11.734;2023-03-21T04:45:10;1.67;;;1.57;;
29030;SDS011;16122;50.236;11.734;2023-03-21T04:47:37;1.40;;;1.30;;
29030;SDS011;16122;50.236;11.734;2023-03-21T04:50:03;1.40;;;1.30;;
29030;SDS011;16122;50.236;11.734;2023-03-21T04:52:29;1.77;;;1.17;;
29030;SDS011;16122;50.236;11.734;2023-03-21T04:54:56;1.63;;;1.50;;
29030;SDS011;16122;50.236;11.734;2023-03-21T04:57:21;2.70;;;1.50;;
29030;SDS011;16122;50.236;11.734;2023-03-21T04:59:48;1.30;;;1.20;;
29030;SDS011;16122;50.236;11.734;2023-03-21T05:02:14;1.80;;;1.40;;
29030;SDS011;16122;50.236;11.734;2023-03-21T05:04:41;2.20;;;1.43;;
29030;SDS011;16122;50.236;11.734;2023-03-21T05:07:07;2.70;;;1.80;;
29030;SDS011;16122;50.236;11.734;2023-03-21T05:09:33;2.60;;;1.70;;
29030;SDS011;16122;50.236;11.734;2023-03-21T05:11:59;2.20;;;1.40;;
29030;SDS011;16122;50.236;11.734;2023-03-21T05:14:28;3.37;;;1.33;;
29030;SDS011;16122;50.236;11.734;2023-03-21T05:16:53;1.60;;;1.37;;
29030;SDS011;16122;50.236;11.734;2023-03-21T05:19:25;2.40;;;1.90;;
29030;SDS011;16122;50.236;11.734;2023-03-21T05:22:05;2.60;;;1.40;;
29030;SDS011;16122;50.236;11.734;2023-03-21T05:24:33;1.93;;;1.47;;
29030;SDS011;16122;50.236;11.734;2023-03-21T05:27:05;2.23;;;1.70;;
29030;SDS011;16122;50.236;11.734;2023-03-21T05:29:38;1.63;;;1.30;;
29030;SDS011;16122;50.236;11.734;2023-03-21T05:32:06;2.07;;;1.40;;
29030;SDS011;16122;50.236;11.734;2023-03-21T05:34:31;3.67;;;1.87;;
29030;SDS011;16122;50.236;11.734;2023-03-21T05:36:58;5.20;;;1.63;;
29030;SDS011;16122;50.236;11.734;2023-03-21T05:39:33;1.20;;;1.10;;
29030;SDS011;16122;50.236;11.734;2023-03-21T05:42:04;3.07;;;1.53;;
29030;SDS011;16122;50.236;11.734;2023-03-21T05:44:30;2.60;;;1.20;;
29030;SDS011;16122;50.236;11.734;2023-03-21T05:46:57;2.80;;;1.77;;
29030;SDS011;16122;50.236;11.734;2023-03-21T05:49:33;1.83;;;1.40;;
29030;SDS011;16122;50.236;11.734;2023-03-21T05:52:01;1.70;;;1.60;;
29030;SDS011;16122;50.236;11.734;2023-03-21T05:54:26;2.40;;;1.30;;
29030;SDS011;16122;50.236;11.734;2023-03-21T05:56:53;3.53;;;1.43;;
29030;SDS011;16122;50.236;11.734;2023-03-21T05:59:28;1.53;;;1.30;;
29030;SDS011;16122;50.236;11.734;2023-03-21T06:01:55;1.60;;;1.50;;
29030;SDS011;16122;50.236;11.734;2023-03-21T06:04:22;1.93;;;1.63;;
29030;SDS011;16122;50.236;11.734;2023-03-21T06:06:47;1.67;;;1.37;;
29030;SDS011;16122;50.236;11.734;2023-03-21T06:09:15;2.60;;;1.60;;
29030;SDS011;16122;50.236;11.734;2023-03-21T06:11:47;1.97;;;1.40;;
29030;SDS011;16122;50.236;11.734;2023-03-21T06:14:23;1.40;;;1.30;;
29030;SDS011;16122;50.236;11.734;2023-03-21T06:17:24;1.60;;;1.20;;
29030;SDS011;16122;50.236;11.734;2023-03-21T06:19:55;2.43;;;1.40;;
29030;SDS011;16122;50.236;11.734;2023-03-21T06:22:26;1.63;;;1.53;;
29030;SDS011;16122;50.236;11.734;2023-03-21T06:24:52;1.40;;;1.23;;
29030;SDS011;16122;50.236;11.734;2023-03-21T06:27:19;2.40;;;1.40;;
29030;SDS011;16122;50.236;11.734;2023-03-21T06:29:54;1.67;;;1.57;;
29030;SDS011;16122;50.236;11.734;2023-03-21T06:32:22;3.70;;;1.43;;
29030;SDS011;16122;50.236;11.734;2023-03-21T06:34:54;2.40;;;1.20;;
29030;SDS011;16122;50.236;11.734;2023-03-21T06:37:20;2.97;;;1.33;;
29030;SDS011;16122;50.236;11.734;2023-03-21T06:39:46;3.53;;;1.30;;
29030;SDS011;16122;50.236;11.734;2023-03-21T06:42:12;1.43;;;1.23;;
29030;SDS011;16122;50.236;11.734;2023-03-21T06:44:39;2.33;;;1.50;;
29030;SDS011;16122;50.236;11.734;2023-03-21T06:47:10;1.67;;;1.57;;
29030;SDS011;16122;50.236;11.734;2023-03-21T06:49:36;1.63;;;1.40;;
29030;SDS011;16122;50.236;11.734;2023-03-21T06:52:07;1.43;;;1.20;;
29030;SDS011;16122;50.236;11.734;2023-03-21T06:54:33;4.00;;;2.03;;
29030;SDS011;16122;50.236;11.734;2023-03-21T06:57:07;2.50;;;1.57;;
29030;SDS011;16122;50.236;11.734;2023-03-21T06:59:34;2.23;;;1.63;;
29030;SDS011;16122;50.236;11.734;2023-03-21T07:02:27;1.33;;;1.23;;
29030;SDS011;16122;50.236;11.734;2023-03-21T07:05:15;2.23;;;1.50;;
29030;SDS011;16122;50.236;11.734;2023-03-21T07:07:42;1.60;;;1.40;;
29030;SDS011;16122;50.236;11.734;2023-03-21T07:10:08;3.30;;;1.40;;
29030;SDS011;16122;50.236;11.734;2023-03-21T07:12:50;1.53;;;1.43;;
29030;SDS011;16122;50.236;11.734;2023-03-21T07:15:29;2.10;;;1.67;;
29030;SDS011;16122;50.236;11.734;2023-03-21T07:17:56;1.20;;;1.00;;
29030;SDS011;16122;50.236;11.734;2023-03-21T07:20:22;3.03;;;1.60;;
29030;SDS011;16122;50.236;11.734;2023-03-21T07:22:48;2.23;;;1.80;;
29030;SDS011;16122;50.236;11.734;2023-03-21T07:25:14;2.03;;;1.50;;
29030;SDS011;16122;50.236;11.734;2023-03-21T07:27:41;2.13;;;1.47;;
29030;SDS011;16122;50.236;11.734;2023-03-21T07:30:08;1.40;;;1.30;;
29030;SDS011;16122;50.236;11.734;2023-03-21T07:32:34;1.40;;;1.30;;
29030;SDS011;16122;50.236;11.734;2023-03-21T07:35:03;1.73;;;1.57;;
29030;SDS011;16122;50.236;11.734;2023-03-21T07:37:30;2.13;;;1.17;;
29030;SDS011;16122;50.236;11.734;2023-03-21T07:39:56;1.40;;;1.30;;
29030;SDS011;16122;50.236;11.734;2023-03-21T07:42:23;3.00;;;1.70;;
29030;SDS011;16122;50.236;11.734;2023-03-21T07:44:57;1.47;;;1.37;;
29030;SDS011;16122;50.236;11.734;2023-03-21T07:47:23;1.43;;;1.33;;
29030;SDS011;16122;50.236;11.734;2023-03-21T07:49:48;1.53;;;1.40;;
29030;SDS011;16122;50.236;11.734;2023-03-21T07:52:15;4.23;;;1.60;;
29030;SDS011;16122;50.236;11.734;2023-03-21T07:54:41;2.10;;;1.70;;
29030;SDS011;16122;50.236;11.734;2023-03-21T07:57:06;1.90;;;1.80;;
29030;SDS011;16122;50.236;11.734;2023-03-21T07:59:32;2.47;;;1.20;;
29030;SDS011;16122;50.236;11.734;2023-03-21T08:01:58;1.33;;;1.23;;
29030;SDS011;16122;50.236;11.734;2023-03-21T08:04:24;2.13;;;1.60;;
29030;SDS011;16122;50.236;11.734;2023-03-21T08:06:50;1.40;;;1.30;;
29030;SDS011;16122;50.236;11.734;2023-03-21T08:09:16;2.37;;;1.50;;
29030;SDS011;16122;50.236;11.734;2023-03-21T08:11:41;1.43;;;1.33;;
29030;SDS011;16122;50.236;11.734;2023-03-21T08:14:07;1.50;;;1.40;;
29030;SDS011;16122;50.236;11.734;2023-03-21T08:16:33;1.40;;;1.30;;
29030;SDS011;16122;50.236;11.734;2023-03-21T08:18:59;1.77;;;1.23;;
29030;SDS011;16122;50.236;11.734;2023-03-21T08:21:25;1.40;;;1.30;;
29030;SDS011;16122;50.236;11.734;2023-03-21T08:23:52;1.17;;;1.07;;
29030;SDS011;16122;50.236;11.734;2023-03-21T08:26:17;4.60;;;1.90;;
29030;SDS011;16122;50.236;11.734;2023-03-21T08:28:44;3.30;;;1.40;;
29030;SDS011;16122;50.236;11.734;2023-03-21T08:31:11;1.43;;;1.33;;
29030;SDS011;16122;50.236;11.734;2023-03-21T08:33:37;2.10;;;1.50;;
29030;SDS011;16122;50.236;11.734;2023-03-21T08:36:04;1.77;;;1.40;;
29030;SDS011;16122;50.236;11.734;2023-03-21T08:38:31;3.07;;;1.73;;
29030;SDS011;16122;50.236;11.734;2023-03-21T08:40:58;1.60;;;1.50;;
29030;SDS011;16122;50.236;11.734;2023-03-21T08:43:25;1.17;;;1.07;;
29030;SDS011;16122;50.236;11.734;2023-03-21T08:45:52;1.63;;;1.53;;
29030;SDS011;16122;50.236;11.734;2023-03-21T08:48:18;1.80;;;1.30;;
29030;SDS011;16122;50.236;11.734;2023-03-21T08:50:44;1.70;;;1.53;;
29030;SDS011;16122;50.236;11.734;2023-03-21T08:53:09;2.20;;;1.27;;
29030;SDS011;16122;50.236;11.734;2023-03-21T08:55:37;1.33;;;1.23;;
29030;SDS011;16122;50.236;11.734;2023-03-21T08:58:03;1.53;;;1.43;;
29030;SDS011;16122;50.236;11.734;2023-03-21T09:00:30;2.07;;;1.77;;
29030;SDS011;16122;50.236;11.734;2023-03-21T09:02:56;1.30;;;1.20;;
29030;SDS011;16122;50.236;11.734;2023-03-21T09:05:23;1.50;;;1.40;;
29030;SDS011;16122;50.236;11.734;2023-03-21T09:07:50;2.17;;;1.30;;
29030;SDS011;16122;50.236;11.734;2023-03-21T09:10:18;1.47;;;1.37;;
29030;SDS011;16122;50.236;11.734;2023-03-21T09:12:46;1.20;;;1.10;;
29030;SDS011;16122;50.236;11.734;2023-03-21T09:15:12;1.50;;;1.40;;
29030;SDS011;16122;50.236;11.734;2023-03-21T09:17:39;1.13;;;1.03;;
29030;SDS011;16122;50.236;11.734;2023-03-21T09:20:11;1.30;;;1.20;;
29030;SDS011;16122;50.236;11.734;2023-03-21T09:22:45;1.70;;;1.30;;
29030;SDS011;16122;50.236;11.734;2023-03-21T09:25:13;1.90;;;1.27;;
29030;SDS011;16122;50.236;11.734;2023-03-21T09:27:40;1.50;;;1.10;;
29030;SDS011;16122;50.236;11.734;2023-03-21T09:30:14;1.60;;;1.30;;
29030;SDS011;16122;50.236;11.734;2023-03-21T09:32:42;1.40;;;1.30;;
29030;SDS011;16122;50.236;11.734;2023-03-21T09:35:11;3.80;;;1.40;;
29030;SDS011;16122;50.236;11.734;2023-03-21T09:37:37;1.63;;;1.30;;
29030;SDS011;16122;50.236;11.734;2023-03-21T09:40:09;1.30;;;1.20;;
29030;SDS011;16122;50.236;11.734;2023-03-21T09:48:06;2.43;;;1.40;;
29030;SDS011;16122;50.236;11.734;2023-03-21T09:50:41;1.93;;;1.50;;
29030;SDS011;16122;50.236;11.734;2023-03-21T09:53:13;1.60;;;1.50;;
29030;SDS011;16122;50.236;11.734;2023-03-21T09:55:45;2.50;;;1.40;;
29030;SDS011;16122;50.236;11.734;2023-03-21T09:58:19;1.60;;;1.50;;
29030;SDS011;16122;50.236;11.734;2023-03-21T10:01:29;1.60;;;1.47;;
29030;SDS011;16122;50.236;11.734;2023-03-21T10:04:03;1.70;;;1.60;;
29030;SDS011;16122;50.236;11.734;2023-03-21T10:06:33;1.20;;;1.10;;
29030;SDS011;16122;50.236;11.734;2023-03-21T10:09:10;1.10;;;1.00;;
29030;SDS011;16122;50.236;11.734;2023-03-21T10:11:58;1.27;;;1.00;;
29030;SDS011;16122;50.236;11.734;2023-03-21T10:14:32;1.20;;;1.10;;
29030;SDS011;16122;50.236;11.734;2023-03-21T10:17:13;3.53;;;1.27;;
29030;SDS011;16122;50.236;11.734;2023-03-21T10:19:48;1.20;;;1.10;;
29030;SDS011;16122;50.236;11.734;2023-03-21T10:22:21;2.73;;;1.20;;
29030;SDS011;16122;50.236;11.734;2023-03-21T10:24:46;1.30;;;1.20;;
29030;SDS011;16122;50.236;11.734;2023-03-21T10:27:12;1.70;;;1.30;;
29030;SDS011;16122;50.236;11.734;2023-03-21T10:29:40;1.90;;;1.40;;
29030;SDS011;16122;50.236;11.734;2023-03-21T10:32:08;1.87;;;1.23;;
29030;SDS011;16122;50.236;11.734;2023-03-21T10:34:42;1.63;;;1.03;;
29030;SDS011;16122;50.236;11.734;2023-03-21T10:37:12;2.17;;;0.90;;
29030;SDS011;16122;50.236;11.734;2023-03-21T10:39:39;1.17;;;1.07;;
29030;SDS011;16122;50.236;11.734;2023-03-21T10:42:40;1.33;;;1.23;;
29030;SDS011;16122;50.236;11.734;2023-03-21T10:45:00;1.53;;;1.20;;
29030;SDS011;16122;50.236;11.734;2023-03-21T10:47:29;1.80;;;1.30;;
29030;SDS011;16122;50.236;11.734;2023-03-21T10:50:01;1.30;;;1.20;;
29030;SDS011;16122;50.236;11.734;2023-03-21T10:52:32;1.33;;;1.17;;
29030;SDS011;16122;50.236;11.734;2023-03-21T10:55:07;1.10;;;1.10;;
29030;SDS011;16122;50.236;11.734;2023-03-21T10:57:36;2.00;;;1.30;;
29030;SDS011;16122;50.236;11.734;2023-03-21T11:00:03;1.37;;;1.20;;
29030;SDS011;16122;50.236;11.734;2023-03-21T11:02:39;1.40;;;1.00;;
29030;SDS011;16122;50.236;11.734;2023-03-21T11:05:07;1.13;;;1.03;;
29030;SDS011;16122;50.236;11.734;2023-03-21T11:07:49;1.70;;;1.30;;
29030;SDS011;16122;50.236;11.734;2023-03-21T11:10:28;3.67;;;1.50;;
29030;SDS011;16122;50.236;11.734;2023-03-21T11:13:07;1.40;;;1.30;;
29030;SDS011;16122;50.236;11.734;2023-03-21T11:15:52;1.73;;;1.20;;
29030;SDS011;16122;50.236;11.734;2023-03-21T11:18:22;1.67;;;1.40;;
29030;SDS011;16122;50.236;11.734;2023-03-21T11:20:55;1.40;;;1.10;;
29030;SDS011;16122;50.236;11.734;2023-03-21T11:23:24;1.67;;;1.30;;
29030;SDS011;16122;50.236;11.734;2023-03-21T11:25:54;1.97;;;1.43;;
29030;SDS011;16122;50.236;11.734;2023-03-21T11:28:23;1.83;;;1.40;;
29030;SDS011;16122;50.236;11.734;2023-03-21T11:30:53;1.97;;;1.57;;
29030;SDS011;16122;50.236;11.734;2023-03-21T11:33:31;1.50;;;1.40;;
29030;SDS011;16122;50.236;11.734;2023-03-21T11:36:34;2.07;;;1.87;;
29030;SDS011;16122;50.236;11.734;2023-03-21T11:41:36;1.37;;;1.17;;
29030;SDS011;16122;50.236;11.734;2023-03-21T11:44:04;3.13;;;1.60;;
29030;SDS011;16122;50.236;11.734;2023-03-21T11:46:30;1.43;;;1.33;;
29030;SDS011;16122;50.236;11.734;2023-03-21T11:49:03;3.10;;;1.83;;
29030;SDS011;16122;50.236;11.734;2023-03-21T11:56:53;4.00;;;1.43;;
29030;SDS011;16122;50.236;11.734;2023-03-21T12:03:16;3.63;;;1.60;;
29030;SDS011;16122;50.236;11.734;2023-03-21T12:05:28;2.77;;;1.70;;
29030;SDS011;16122;50.236;11.734;2023-03-21T12:21:33;3.00;;;1.40;;
29030;SDS011;16122;50.236;11.734;2023-03-21T12:24:21;1.53;;;1.37;;
29030;SDS011;16122;50.236;11.734;2023-03-21T12:32:04;2.80;;;1.50;;
29030;SDS011;16122;50.236;11.734;2023-03-21T12:35:06;3.47;;;2.00;;
29030;SDS011;16122;50.236;11.734;2023-03-21T12:40:21;4.20;;;1.47;;
29030;SDS011;16122;50.236;11.734;2023-03-21T12:45:47;2.90;;;2.23;;
29030;SDS011;16122;50.236;11.734;2023-03-21T12:48:23;1.93;;;1.60;;
29030;SDS011;16122;50.236;11.734;2023-03-21T12:50:56;3.63;;;1.57;;
29030;SDS011;16122;50.236;11.734;2023-03-21T12:56:30;6.70;;;1.47;;
29030;SDS011;16122;50.236;11.734;2023-03-21T12:59:15;3.67;;;1.40;;
29030;SDS011;16122;50.236;11.734;2023-03-21T13:01:49;2.00;;;1.30;;
29030;SDS011;16122;50.236;11.734;2023-03-21T13:07:22;1.60;;;1.47;;
29030;SDS011;16122;50.236;11.734;2023-03-21T13:09:49;2.00;;;1.50;;
29030;SDS011;16122;50.236;11.734;2023-03-21T13:12:21;4.13;;;2.13;;
29030;SDS011;16122;50.236;11.734;2023-03-21T13:18:47;4.77;;;1.83;;
29030;SDS011;16122;50.236;11.734;2023-03-21T13:20:57;9.07;;;2.50;;
29030;SDS011;16122;50.236;11.734;2023-03-21T13:23:34;7.37;;;3.10;;
29030;SDS011;16122;50.236;11.734;2023-03-21T13:26:02;15.33;;;2.57;;
29030;SDS011;16122;50.236;11.734;2023-03-21T13:28:35;5.63;;;2.40;;
29030;SDS011;16122;50.236;11.734;2023-03-21T13:33:41;6.80;;;2.77;;
29030;SDS011;16122;50.236;11.734;2023-03-21T13:36:14;7.47;;;2.90;;
29030;SDS011;16122;50.236;11.734;2023-03-21T13:38:43;5.03;;;3.00;;
29030;SDS011;16122;50.236;11.734;2023-03-21T13:41:19;5.10;;;2.17;;
29030;SDS011;16122;50.236;11.734;2023-03-21T13:44:18;6.47;;;2.40;;
29030;SDS011;16122;50.236;11.734;2023-03-21T13:50:13;4.70;;;2.10;;
29030;SDS011;16122;50.236;11.734;2023-03-21T13:52:42;4.43;;;2.03;;
29030;SDS011;16122;50.236;11.734;2023-03-21T13:55:44;12.67;;;3.20;;
29030;SDS011;16122;50.236;11.734;2023-03-21T13:58:21;6.17;;;2.43;;
29030;SDS011;16122;50.236;11.734;2023-03-21T14:06:42;7.50;;;2.80;;
29030;SDS011;16122;50.236;11.734;2023-03-21T14:09:21;8.43;;;3.40;;
29030;SDS011;16122;50.236;11.734;2023-03-21T14:11:58;6.13;;;2.90;;
29030;SDS011;16122;50.236;11.734;2023-03-21T14:14:28;6.50;;;2.93;;
29030;SDS011;16122;50.236;11.734;2023-03-21T14:17:00;8.43;;;2.97;;
29030;SDS011;16122;50.236;11.734;2023-03-21T14:19:29;7.73;;;2.87;;
29030;SDS011;16122;50.236;11.734;2023-03-21T14:21:56;7.63;;;2.57;;
29030;SDS011;16122;50.236;11.734;2023-03-21T14:24:22;7.43;;;3.00;;
29030;SDS011;16122;50.236;11.734;2023-03-21T14:26:49;5.43;;;2.60;;
29030;SDS011;16122;50.236;11.734;2023-03-21T14:29:39;9.53;;;3.13;;
29030;SDS011;16122;50.236;11.734;2023-03-21T14:32:04;5.70;;;3.07;;
29030;SDS011;16122;50.236;11.734;2023-03-21T14:34:31;4.70;;;2.37;;
29030;SDS011;16122;50.236;11.734;2023-03-21T14:36:59;9.17;;;2.90;;
29030;SDS011;16122;50.236;11.734;2023-03-21T14:39:29;5.40;;;2.67;;
29030;SDS011;16122;50.236;11.734;2023-03-21T14:42:06;10.07;;;3.17;;
29030;SDS011;16122;50.236;11.734;2023-03-21T14:44:39;5.70;;;2.70;;
29030;SDS011;16122;50.236;11.734;2023-03-21T14:47:16;5.93;;;2.70;;
29030;SDS011;16122;50.236;11.734;2023-03-21T14:49:45;7.63;;;2.80;;
29030;SDS011;16122;50.236;11.734;2023-03-21T14:52:13;5.93;;;2.73;;
29030;SDS011;16122;50.236;11.734;2023-03-21T14:54:45;3.47;;;2.43;;
29030;SDS011;16122;50.236;11.734;2023-03-21T14:57:13;8.13;;;3.03;;
29030;SDS011;16122;50.236;11.734;2023-03-21T14:59:43;3.83;;;2.30;;
29030;SDS011;16122;50.236;11.734;2023-03-21T15:02:17;5.23;;;2.50;;
29030;SDS011;16122;50.236;11.734;2023-03-21T15:04:51;8.07;;;2.27;;
29030;SDS011;16122;50.236;11.734;2023-03-21T15:09:56;5.90;;;2.50;;
29030;SDS011;16122;50.236;11.734;2023-03-21T15:12:25;4.67;;;2.43;;
29030;SDS011;16122;50.236;11.734;2023-03-21T15:14:50;4.60;;;2.60;;
29030;SDS011;16122;50.236;11.734;2023-03-21T15:17:17;7.57;;;2.63;;
29030;SDS011;16122;50.236;11.734;2023-03-21T15:19:44;7.70;;;2.63;;
29030;SDS011;16122;50.236;11.734;2023-03-21T15:24:56;7.43;;;2.47;;
29030;SDS011;16122;50.236;11.734;2023-03-21T15:27:29;5.60;;;2.40;;
29030;SDS011;16122;50.236;11.734;2023-03-21T15:29:58;4.37;;;2.40;;
29030;SDS011;16122;50.236;11.734;2023-03-21T15:32:25;3.50;;;2.10;;
29030;SDS011;16122;50.236;11.734;2023-03-21T15:34:53;6.13;;;2.83;;
29030;SDS011;16122;50.236;11.734;2023-03-21T15:37:27;6.40;;;2.47;;
29030;SDS011;16122;50.236;11.734;2023-03-21T15:39:53;3.50;;;2.27;;
29030;SDS011;16122;50.236;11.734;2023-03-21T15:42:36;9.10;;;2.30;;
29030;SDS011;16122;50.236;11.734;2023-03-21T15:45:09;9.73;;;2.30;;
29030;SDS011;16122;50.236;11.734;2023-03-21T15:50:21;8.60;;;2.27;;
29030;SDS011;16122;50.236;11.734;2023-03-21T15:52:50;2.97;;;1.90;;
29030;SDS011;16122;50.236;11.734;2023-03-21T15:55:19;4.87;;;2.23;;
29030;SDS011;16122;50.236;11.734;2023-03-21T15:58:22;5.40;;;2.20;;
29030;SDS011;16122;50.236;11.734;2023-03-21T16:00:56;4.10;;;2.10;;
29030;SDS011;16122;50.236;11.734;2023-03-21T16:03:30;3.67;;;2.70;;
29030;SDS011;16122;50.236;11.734;2023-03-21T16:06:03;3.17;;;1.93;;
29030;SDS011;16122;50.236;11.734;2023-03-21T16:11:36;2.90;;;1.93;;
29030;SDS011;16122;50.236;11.734;2023-03-21T16:14:07;4.53;;;2.07;;
29030;SDS011;16122;50.236;11.734;2023-03-21T16:16:33;3.57;;;2.07;;
29030;SDS011;16122;50.236;11.734;2023-03-21T16:19:00;2.60;;;2.20;;
29030;SDS011;16122;50.236;11.734;2023-03-21T16:25:14;3.47;;;1.97;;
29030;SDS011;16122;50.236;11.734;2023-03-21T16:27:40;3.70;;;1.97;;
29030;SDS011;16122;50.236;11.734;2023-03-21T16:30:07;4.43;;;2.00;;
29030;SDS011;16122;50.236;11.734;2023-03-21T16:32:33;4.67;;;1.90;;
29030;SDS011;16122;50.236;11.734;2023-03-21T16:34:59;3.50;;;2.13;;
29030;SDS011;16122;50.236;11.734;2023-03-21T16:37:25;3.37;;;2.33;;
29030;SDS011;16122;50.236;11.734;2023-03-21T16:39:51;5.70;;;2.40;;
29030;SDS011;16122;50.236;11.734;2023-03-21T16:42:17;4.93;;;2.10;;
29030;SDS011;16122;50.236;11.734;2023-03-21T16:44:42;3.93;;;2.20;;
29030;SDS011;16122;50.236;11.734;2023-03-21T16:47:16;5.33;;;2.30;;
29030;SDS011;16122;50.236;11.734;2023-03-21T16:49:44;4.50;;;2.70;;
29030;SDS011;16122;50.236;11.734;2023-03-21T16:52:11;3.13;;;2.60;;
29030;SDS011;16122;50.236;11.734;2023-03-21T16:54:38;4.60;;;2.70;;